Time;durP1;ratioP1;P1;durP2;ratioP2;P2;SDS_P1;SDS_P2;PMS_P1;PMS_P2;Temp;Humidity;BMP_temperature;BMP_pressure;BME280_temperature;BME280_humidity;BME280_pressure;Samples;Min_cycle;Max_cycle;Signal;HPM_P1;HPM_P2
2024/03/20 00:01:07;;;;;;;4.43;2.20;;;13.00;99.90;;;;;;4156219;28;20032;-60
2024/03/20 00:03:08;;;;;;;3.80;1.70;;;12.90;99.90;;;;;;4158634;28;20546;-60
2024/03/20 00:05:09;;;;;;;5.13;2.35;;;13.00;99.90;;;;;;4157873;28;20061;-61
2024/03/20 00:07:09;;;;;;;4.60;2.17;;;12.90;99.90;;;;;;4157614;28;20038;-60
2024/03/20 00:09:10;;;;;;;4.13;1.98;;;12.90;99.90;;;;;;4158534;28;20034;-60
2024/03/20 00:11:10;;;;;;;4.55;2.53;;;12.90;99.90;;;;;;4150046;28;20045;-63
2024/03/20 00:13:12;;;;;;;7.18;2.38;;;12.90;99.90;;;;;;4162556;28;20041;-61
2024/03/20 00:15:12;;;;;;;4.10;2.40;;;12.80;99.90;;;;;;4161269;28;20498;-60
2024/03/20 00:17:13;;;;;;;4.07;2.00;;;12.80;99.90;;;;;;4162462;28;20042;-60
2024/03/20 00:19:14;;;;;;;4.40;2.00;;;12.80;99.90;;;;;;4161970;28;20544;-60
2024/03/20 00:21:14;;;;;;;5.50;2.38;;;12.80;99.90;;;;;;4160510;28;20054;-60
2024/03/20 00:23:15;;;;;;;4.32;1.90;;;12.80;99.90;;;;;;4162504;28;20040;-60
2024/03/20 00:25:16;;;;;;;4.28;2.20;;;12.80;99.90;;;;;;4160965;28;20118;-60
2024/03/20 00:27:16;;;;;;;5.55;2.80;;;12.80;99.90;;;;;;4160318;28;20367;-60
2024/03/20 00:29:17;;;;;;;4.00;2.50;;;12.70;99.90;;;;;;4162067;28;20053;-60
2024/03/20 00:31:17;;;;;;;4.47;2.53;;;12.70;99.90;;;;;;4157912;28;20044;-60
2024/03/20 00:33:18;;;;;;;3.67;2.17;;;12.70;99.90;;;;;;4162061;28;20033;-60
2024/03/20 00:35:19;;;;;;;3.15;2.00;;;12.70;99.90;;;;;;4160642;28;20073;-60
2024/03/20 00:37:19;;;;;;;4.97;2.00;;;12.70;99.90;;;;;;4162070;28;20049;-60
2024/03/20 00:39:20;;;;;;;4.47;2.10;;;12.70;99.90;;;;;;4159332;28;20390;-60
2024/03/20 00:41:20;;;;;;;6.65;2.30;;;12.70;99.90;;;;;;4160135;28;20037;-60
2024/03/20 00:43:21;;;;;;;5.35;2.72;;;12.60;99.90;;;;;;4162188;28;20149;-60
2024/03/20 00:45:22;;;;;;;7.75;2.75;;;12.60;99.90;;;;;;4161644;28;20072;-60
2024/03/20 00:47:22;;;;;;;5.00;2.65;;;12.60;99.90;;;;;;4161953;28;20434;-60
2024/03/20 00:49:23;;;;;;;4.93;3.08;;;12.60;99.90;;;;;;4161590;28;20048;-60
2024/03/20 00:51:23;;;;;;;3.67;2.40;;;12.50;99.90;;;;;;4160012;28;20527;-60
2024/03/20 00:53:24;;;;;;;3.75;2.40;;;12.50;99.90;;;;;;4159803;28;20038;-60
2024/03/20 00:55:24;;;;;;;4.65;2.30;;;12.50;99.90;;;;;;4158915;28;20643;-60
2024/03/20 00:57:25;;;;;;;4.25;2.17;;;12.50;99.90;;;;;;4159405;28;20037;-60
2024/03/20 00:59:26;;;;;;;5.03;2.40;;;12.50;99.90;;;;;;4156827;28;20041;-60
2024/03/20 01:01:26;;;;;;;3.10;1.85;;;12.50;99.90;;;;;;4151410;28;20464;-60
2024/03/20 01:03:27;;;;;;;3.10;2.08;;;12.50;99.90;;;;;;4159406;28;20037;-60
2024/03/20 01:05:27;;;;;;;3.90;2.05;;;12.40;99.90;;;;;;4158990;28;20057;-60
2024/03/20 01:07:28;;;;;;;2.97;1.77;;;12.40;99.90;;;;;;4159807;28;20053;-60
2024/03/20 01:09:29;;;;;;;3.28;2.30;;;12.40;99.90;;;;;;4159003;28;20057;-60
2024/03/20 01:11:30;;;;;;;4.72;2.17;;;12.40;99.90;;;;;;4158652;28;20086;-60
2024/03/20 01:13:31;;;;;;;6.05;2.03;;;12.40;99.90;;;;;;4161065;28;20053;-60
2024/03/20 01:15:31;;;;;;;4.80;2.10;;;12.30;99.90;;;;;;4159934;28;20486;-60
2024/03/20 01:17:34;;;;;;;5.03;2.42;;;12.30;99.90;;;;;;4160315;28;20034;-60
2024/03/20 01:19:35;;;;;;;7.18;2.60;;;12.30;99.90;;;;;;4160349;28;20064;-60
2024/03/20 01:21:36;;;;;;;4.90;2.28;;;12.30;99.90;;;;;;4158444;28;20052;-60
2024/03/20 01:23:36;;;;;;;3.75;2.00;;;12.30;99.90;;;;;;4159992;28;20273;-60
2024/03/20 01:25:37;;;;;;;4.30;1.92;;;12.30;99.90;;;;;;4159318;28;20044;-60
2024/03/20 01:27:38;;;;;;;6.25;2.58;;;12.30;99.90;;;;;;4160331;28;20038;-61
2024/03/20 01:29:38;;;;;;;4.43;2.80;;;12.30;99.90;;;;;;4158685;28;20041;-61
2024/03/20 01:31:39;;;;;;;4.57;2.42;;;12.30;99.90;;;;;;4158464;28;20644;-60
2024/03/20 01:33:40;;;;;;;5.88;2.78;;;12.20;99.90;;;;;;4160384;28;20132;-60
2024/03/20 01:35:40;;;;;;;6.47;3.05;;;12.20;99.90;;;;;;4158705;28;20041;-61
2024/03/20 01:37:41;;;;;;;4.65;2.70;;;12.20;99.90;;;;;;4159311;28;20490;-60
2024/03/20 01:39:42;;;;;;;6.05;2.35;;;12.20;99.90;;;;;;4159665;28;20036;-61
2024/03/20 01:41:42;;;;;;;4.78;2.40;;;12.20;99.90;;;;;;4158781;28;20057;-60
2024/03/20 01:43:53;;;;;;;5.50;2.70;;;12.10;99.90;;;;;;4158956;28;20048;-60
2024/03/20 01:45:54;;;;;;;4.53;2.78;;;12.10;99.90;;;;;;4157429;28;20037;-60
2024/03/20 01:47:54;;;;;;;4.53;2.42;;;12.10;99.90;;;;;;4159613;28;20052;-60
2024/03/20 01:49:55;;;;;;;4.97;2.60;;;12.10;99.90;;;;;;4157471;28;20038;-60
2024/03/20 01:51:57;;;;;;;4.43;2.50;;;12.00;99.90;;;;;;4157765;28;20136;-60
2024/03/20 01:53:59;;;;;;;4.47;2.50;;;12.00;99.90;;;;;;4156145;28;20053;-60
2024/03/20 01:56:00;;;;;;;6.88;2.75;;;12.10;99.90;;;;;;4156638;28;20221;-70
2024/03/20 01:58:01;;;;;;;4.28;2.45;;;12.00;99.90;;;;;;4159601;28;20052;-70
2024/03/20 02:00:02;;;;;;;4.20;2.30;;;12.00;99.90;;;;;;4157457;28;20389;-70
2024/03/20 02:02:03;;;;;;;5.95;2.78;;;12.00;99.90;;;;;;4158639;28;20038;-70
2024/03/20 02:04:07;;;;;;;5.30;2.70;;;12.00;99.90;;;;;;4112590;28;1339351;-70
2024/03/20 02:06:25;;;;;;;5.15;2.97;;;12.00;99.90;;;;;;4159012;28;20124;-70
2024/03/20 02:08:26;;;;;;;5.32;2.75;;;11.90;99.90;;;;;;4156193;28;20514;-70
2024/03/20 02:10:26;;;;;;;5.18;2.72;;;11.90;99.90;;;;;;4157805;28;20087;-70
2024/03/20 02:12:27;;;;;;;3.85;2.58;;;11.90;99.90;;;;;;4160556;28;20038;-69
2024/03/20 02:14:27;;;;;;;2.85;2.30;;;11.90;99.90;;;;;;4159915;28;20528;-70
2024/03/20 02:16:28;;;;;;;3.33;2.13;;;11.90;99.90;;;;;;4157653;28;20252;-70
2024/03/20 02:18:28;;;;;;;3.70;2.53;;;11.90;99.90;;;;;;4160150;28;20037;-70
2024/03/20 02:20:30;;;;;;;2.88;2.20;;;11.90;99.90;;;;;;4158923;28;20042;-70
2024/03/20 02:22:41;;;;;;;4.13;2.63;;;11.80;99.90;;;;;;4158119;28;20041;-70
2024/03/20 02:24:41;;;;;;;4.25;2.60;;;11.80;99.90;;;;;;4154872;28;20067;-70
2024/03/20 02:26:42;;;;;;;6.80;3.03;;;11.70;99.90;;;;;;4156913;28;20402;-70
2024/03/20 02:28:44;;;;;;;9.02;2.90;;;11.70;99.90;;;;;;4151511;28;20037;-70
2024/03/20 02:30:44;;;;;;;3.55;2.20;;;11.70;99.90;;;;;;4156496;28;20044;-70
2024/03/20 02:32:45;;;;;;;4.30;2.25;;;11.70;99.90;;;;;;4160268;28;20414;-70
2024/03/20 02:34:45;;;;;;;4.10;2.22;;;11.70;99.90;;;;;;4155877;28;20065;-70
2024/03/20 02:36:46;;;;;;;3.45;2.33;;;11.70;99.90;;;;;;4159218;28;20040;-70
2024/03/20 02:38:47;;;;;;;7.60;2.40;;;11.70;99.90;;;;;;4156762;28;20029;-69
2024/03/20 02:40:48;;;;;;;3.03;2.00;;;11.70;99.90;;;;;;4158368;28;20053;-69
2024/03/20 02:42:49;;;;;;;7.90;2.47;;;11.70;99.90;;;;;;4160112;28;20064;-70
2024/03/20 02:44:51;;;;;;;3.50;2.47;;;11.60;99.90;;;;;;4159194;28;20041;-70
2024/03/20 02:46:51;;;;;;;3.03;2.10;;;11.60;99.90;;;;;;4157902;28;20488;-70
2024/03/20 02:48:52;;;;;;;3.10;2.15;;;11.60;99.90;;;;;;4155591;28;20029;-70
2024/03/20 02:50:52;;;;;;;4.72;2.25;;;11.70;99.90;;;;;;4156338;28;20445;-71
2024/03/20 02:52:53;;;;;;;4.13;2.53;;;11.70;99.90;;;;;;4160511;28;20057;-71
2024/03/20 02:54:54;;;;;;;4.68;2.80;;;11.60;99.90;;;;;;4159772;28;20033;-70
2024/03/20 02:56:54;;;;;;;5.10;2.45;;;11.70;99.90;;;;;;4158524;28;20021;-71
2024/03/20 02:58:55;;;;;;;4.18;2.15;;;11.60;99.90;;;;;;4158663;28;20033;-70
2024/03/20 03:00:55;;;;;;;2.85;2.08;;;11.70;99.90;;;;;;4157840;28;20351;-70
2024/03/20 03:02:57;;;;;;;4.35;2.15;;;11.70;99.90;;;;;;4160022;28;20057;-70
2024/03/20 03:04:58;;;;;;;3.95;2.10;;;11.70;99.90;;;;;;4158701;28;20405;-60
2024/03/20 03:06:59;;;;;;;4.10;2.35;;;11.70;99.90;;;;;;4156845;28;20044;-69
2024/03/20 03:08:59;;;;;;;4.18;2.58;;;11.70;99.90;;;;;;4157970;28;20102;-68
2024/03/20 03:11:00;;;;;;;4.68;2.70;;;11.70;99.90;;;;;;4156756;28;20040;-68
2024/03/20 03:13:01;;;;;;;2.83;1.92;;;11.60;99.90;;;;;;4158738;28;20501;-68
2024/03/20 03:15:02;;;;;;;4.18;2.10;;;11.70;99.90;;;;;;4158932;28;20049;-68
2024/03/20 03:17:03;;;;;;;4.72;2.20;;;11.60;99.90;;;;;;4158257;28;20466;-69
2024/03/20 03:19:05;;;;;;;3.45;2.53;;;11.70;99.90;;;;;;4157634;28;20052;-68
2024/03/20 03:21:10;;;;;;;4.25;2.22;;;11.70;99.90;;;;;;4156680;28;20124;-68
2024/03/20 03:23:11;;;;;;;3.75;2.38;;;11.60;99.90;;;;;;4158378;28;20056;-68
2024/03/20 03:25:12;;;;;;;3.55;2.03;;;11.60;99.90;;;;;;4157135;28;20037;-68
2024/03/20 03:27:13;;;;;;;4.78;2.28;;;11.60;99.90;;;;;;4158569;28;20037;-68
2024/03/20 03:29:13;;;;;;;5.45;2.47;;;11.60;99.90;;;;;;4158839;28;20124;-68
2024/03/20 03:31:14;;;;;;;4.60;2.60;;;11.60;99.90;;;;;;4157012;28;20036;-68
2024/03/20 03:33:14;;;;;;;4.35;2.22;;;11.60;99.90;;;;;;4156564;28;20401;-68
2024/03/20 03:35:15;;;;;;;3.70;2.42;;;11.60;99.90;;;;;;4156382;28;20045;-69
2024/03/20 03:37:16;;;;;;;4.07;2.38;;;11.50;99.90;;;;;;4158606;28;20128;-68
2024/03/20 03:39:16;;;;;;;4.93;2.78;;;11.50;99.90;;;;;;4157416;28;20037;-68
2024/03/20 03:41:17;;;;;;;6.32;2.22;;;11.50;99.90;;;;;;4156831;28;20124;-68
2024/03/20 03:43:17;;;;;;;4.18;2.65;;;11.50;99.90;;;;;;4159719;28;20397;-68
2024/03/20 03:45:19;;;;;;;3.88;2.20;;;11.50;99.90;;;;;;4158643;28;20076;-68
2024/03/20 03:47:19;;;;;;;5.65;3.00;;;11.50;99.90;;;;;;4157651;28;20038;-68
2024/03/20 03:49:20;;;;;;;6.30;2.72;;;11.50;99.90;;;;;;4157361;28;20045;-68
2024/03/20 03:51:21;;;;;;;4.90;2.83;;;11.50;99.90;;;;;;4156838;28;20437;-68
2024/03/20 03:53:21;;;;;;;3.65;2.33;;;11.50;99.90;;;;;;4159077;28;20049;-68
2024/03/20 03:55:22;;;;;;;3.33;2.80;;;11.50;99.90;;;;;;4158437;28;20437;-68
2024/03/20 03:57:22;;;;;;;5.40;2.53;;;11.40;99.90;;;;;;4158983;28;20033;-69
2024/03/20 03:59:23;;;;;;;4.78;2.80;;;11.40;99.90;;;;;;4159534;28;20061;-68
2024/03/20 04:01:24;;;;;;;4.90;2.90;;;11.40;99.90;;;;;;4157775;28;20134;-68
2024/03/20 04:03:27;;;;;;;3.47;2.28;;;11.40;99.90;;;;;;4159404;28;20068;-69
2024/03/20 04:05:29;;;;;;;5.22;2.58;;;11.40;99.90;;;;;;4156298;28;20124;-68
2024/03/20 04:07:30;;;;;;;4.53;2.75;;;11.40;99.90;;;;;;4157686;28;20136;-68
2024/03/20 04:09:31;;;;;;;4.15;2.50;;;11.40;99.90;;;;;;4156315;28;20025;-68
2024/03/20 04:11:32;;;;;;;4.80;2.88;;;11.40;99.90;;;;;;4157997;28;20587;-68
2024/03/20 04:13:33;;;;;;;6.10;2.97;;;11.40;99.90;;;;;;4156745;28;20037;-68
2024/03/20 04:15:33;;;;;;;3.78;2.63;;;11.40;99.90;;;;;;4152954;28;20442;-67
2024/03/20 04:17:34;;;;;;;3.63;2.50;;;11.40;99.90;;;;;;4154090;28;20037;-67
2024/03/20 04:19:34;;;;;;;5.13;2.80;;;11.40;99.90;;;;;;4156049;28;20096;-67
2024/03/20 04:21:35;;;;;;;6.15;3.03;;;11.40;99.90;;;;;;4157317;28;20042;-67
2024/03/20 04:23:36;;;;;;;4.50;3.00;;;11.40;99.90;;;;;;4159136;28;20032;-67
2024/03/20 04:25:37;;;;;;;5.68;2.92;;;11.30;99.90;;;;;;4158227;28;20038;-67
2024/03/20 04:27:38;;;;;;;5.38;3.20;;;11.30;99.90;;;;;;4158666;28;20112;-68
2024/03/20 04:29:38;;;;;;;5.10;2.70;;;11.30;99.90;;;;;;4158008;28;20112;-67
2024/03/20 04:31:39;;;;;;;4.13;2.45;;;11.30;99.90;;;;;;4156108;28;20076;-67
2024/03/20 04:33:40;;;;;;;5.38;3.25;;;11.30;99.90;;;;;;4159247;28;20038;-67
2024/03/20 04:35:41;;;;;;;4.40;2.75;;;11.30;99.90;;;;;;4157735;28;20045;-67
2024/03/20 04:37:42;;;;;;;5.97;3.35;;;11.30;99.90;;;;;;4157857;28;20041;-67
2024/03/20 04:39:43;;;;;;;4.53;3.05;;;11.30;99.90;;;;;;4159242;28;20053;-67
2024/03/20 04:41:43;;;;;;;5.38;3.38;;;11.30;99.90;;;;;;4153488;28;20030;-66
2024/03/20 04:43:44;;;;;;;9.80;3.28;;;11.30;99.90;;;;;;4156736;28;20137;-67
2024/03/20 04:45:45;;;;;;;7.68;3.13;;;11.40;99.90;;;;;;4158079;28;20029;-67
2024/03/20 04:47:45;;;;;;;5.07;3.75;;;11.40;99.90;;;;;;4158253;28;20529;-67
2024/03/20 04:49:46;;;;;;;4.97;3.58;;;11.40;99.90;;;;;;4158902;28;20030;-67
2024/03/20 04:51:46;;;;;;;5.60;3.50;;;11.40;99.90;;;;;;4157401;28;20029;-67
2024/03/20 04:53:47;;;;;;;5.47;3.13;;;11.40;99.90;;;;;;4158406;28;20026;-67
2024/03/20 04:55:48;;;;;;;5.03;3.00;;;11.40;99.90;;;;;;4157985;28;20048;-67
2024/03/20 04:57:48;;;;;;;4.80;2.97;;;11.40;99.90;;;;;;4158774;28;20057;-68
2024/03/20 04:59:49;;;;;;;5.20;3.03;;;11.40;99.90;;;;;;4161867;28;20079;-67
2024/03/20 05:01:49;;;;;;;5.72;3.42;;;11.50;99.90;;;;;;4158251;28;20359;-67
2024/03/20 05:03:50;;;;;;;4.70;3.22;;;11.50;99.90;;;;;;4161672;28;20112;-67
2024/03/20 05:05:51;;;;;;;6.63;3.83;;;11.50;99.90;;;;;;4143140;28;20266;-67
2024/03/20 05:07:51;;;;;;;5.50;3.80;;;11.50;99.90;;;;;;4148505;28;20498;-67
2024/03/20 05:09:52;;;;;;;7.07;4.50;;;11.50;99.90;;;;;;4158003;28;20037;-67
2024/03/20 05:11:53;;;;;;;6.70;3.80;;;11.40;99.90;;;;;;4157423;28;20033;-67
2024/03/20 05:13:53;;;;;;;6.97;3.72;;;11.40;99.90;;;;;;4160748;28;20092;-68
2024/03/20 05:15:54;;;;;;;5.82;3.75;;;11.50;99.90;;;;;;4160263;28;20030;-68
2024/03/20 05:17:54;;;;;;;6.68;3.83;;;11.40;99.90;;;;;;4157691;28;20164;-67
2024/03/20 05:19:55;;;;;;;7.22;3.50;;;11.40;99.90;;;;;;4160834;28;20037;-67
2024/03/20 05:21:55;;;;;;;7.38;3.83;;;11.40;99.90;;;;;;4158794;28;20038;-67
2024/03/20 05:23:56;;;;;;;7.05;3.72;;;11.40;99.90;;;;;;4160037;28;20379;-67
2024/03/20 05:25:58;;;;;;;7.07;3.90;;;11.40;99.90;;;;;;4161062;28;20040;-69
2024/03/20 05:27:58;;;;;;;4.00;3.10;;;11.50;99.90;;;;;;4160842;28;20029;-69
2024/03/20 05:29:59;;;;;;;6.60;3.97;;;11.50;99.90;;;;;;4160221;28;20440;-68
2024/03/20 05:32:00;;;;;;;7.82;3.72;;;11.50;99.90;;;;;;4159187;28;20030;-69
2024/03/20 05:34:00;;;;;;;9.60;4.05;;;11.50;99.90;;;;;;4159072;28;20168;-68
2024/03/20 05:36:01;;;;;;;8.65;3.60;;;11.50;99.90;;;;;;4158865;28;20117;-69
2024/03/20 05:38:01;;;;;;;7.03;3.83;;;11.50;99.90;;;;;;4159444;28;20371;-69
2024/03/20 05:40:04;;;;;;;7.20;4.50;;;11.60;99.90;;;;;;4160840;28;20048;-70
2024/03/20 05:42:05;;;;;;;5.00;3.50;;;11.50;99.90;;;;;;4159521;28;20500;-69
2024/03/20 05:44:06;;;;;;;5.72;4.00;;;11.60;99.90;;;;;;4160819;28;20038;-69
2024/03/20 05:46:09;;;;;;;7.32;3.75;;;11.60;99.90;;;;;;4160000;28;20033;-69
2024/03/20 05:48:09;;;;;;;5.25;3.72;;;11.50;99.90;;;;;;4159693;28;20163;-69
2024/03/20 05:50:11;;;;;;;5.38;3.10;;;11.50;99.90;;;;;;4159597;28;20075;-70
2024/03/20 05:52:12;;;;;;;5.28;3.47;;;11.50;99.90;;;;;;4160782;28;20542;-72
2024/03/20 05:54:12;;;;;;;5.32;3.47;;;11.50;99.90;;;;;;4159699;28;20081;-73
2024/03/20 05:56:13;;;;;;;6.20;3.55;;;11.50;99.90;;;;;;4160027;28;20466;-73
2024/03/20 05:58:13;;;;;;;5.53;3.40;;;11.60;99.90;;;;;;4156490;28;20053;-73
2024/03/20 06:00:15;;;;;;;6.38;3.60;;;11.50;99.90;;;;;;4158864;28;20057;-73
2024/03/20 06:02:16;;;;;;;6.60;3.70;;;11.60;99.90;;;;;;4160007;28;20100;-73
2024/03/20 06:04:17;;;;;;;6.63;3.63;;;11.60;99.90;;;;;;4154692;28;20059;-73
2024/03/20 06:06:17;;;;;;;6.68;3.60;;;11.60;99.90;;;;;;4159542;28;20041;-73
2024/03/20 06:08:18;;;;;;;6.18;3.20;;;11.60;99.90;;;;;;4157861;28;20037;-74
2024/03/20 06:10:18;;;;;;;5.57;3.53;;;11.60;99.90;;;;;;4156396;28;20040;-74
2024/03/20 06:12:19;;;;;;;5.85;3.72;;;11.60;99.90;;;;;;4158784;28;20030;-73
2024/03/20 06:14:20;;;;;;;5.55;3.70;;;11.70;99.90;;;;;;4157260;28;20120;-73
2024/03/20 06:16:20;;;;;;;6.22;3.60;;;11.70;99.90;;;;;;4159124;28;20376;-73
2024/03/20 06:18:21;;;;;;;4.85;3.35;;;11.70;99.90;;;;;;4159281;28;20068;-73
2024/03/20 06:20:22;;;;;;;6.97;4.20;;;11.70;99.90;;;;;;4156077;28;20033;-74
2024/03/20 06:22:26;;;;;;;7.03;4.25;;;11.70;99.90;;;;;;4155479;28;20490;-73
2024/03/20 06:24:26;;;;;;;6.85;3.80;;;11.70;99.90;;;;;;4159742;28;20041;-72
2024/03/20 06:26:27;;;;;;;9.45;4.28;;;11.80;99.90;;;;;;4155144;28;20437;-73
2024/03/20 06:28:27;;;;;;;6.28;3.55;;;11.70;99.90;;;;;;4155974;28;20037;-73
2024/03/20 06:30:29;;;;;;;6.38;3.92;;;11.80;99.90;;;;;;4145668;28;20430;-73
2024/03/20 06:32:32;;;;;;;6.43;3.65;;;11.70;99.90;;;;;;4158056;28;20030;-72
2024/03/20 06:34:32;;;;;;;6.90;3.58;;;11.70;99.90;;;;;;4158118;28;20489;-73
2024/03/20 06:36:33;;;;;;;6.57;3.72;;;11.70;99.90;;;;;;4158533;28;20037;-81
2024/03/20 06:38:33;;;;;;;6.22;3.22;;;11.80;99.90;;;;;;4156174;28;20050;-80
2024/03/20 06:40:34;;;;;;;6.90;3.90;;;11.80;99.90;;;;;;4156672;28;20458;-81
2024/03/20 06:42:35;;;;;;;7.53;3.55;;;11.80;99.90;;;;;;4159336;28;20036;-81
2024/03/20 06:44:35;;;;;;;4.88;3.40;;;11.80;99.90;;;;;;4156146;28;20197;-81
2024/03/20 06:46:36;;;;;;;6.68;3.20;;;11.90;99.90;;;;;;4156031;28;20399;-79
2024/03/20 06:48:37;;;;;;;4.55;3.30;;;12.00;99.90;;;;;;4159137;28;20041;-80
2024/03/20 06:50:37;;;;;;;6.30;3.70;;;12.10;99.90;;;;;;4168397;28;20057;-80
2024/03/20 06:52:38;;;;;;;5.78;3.22;;;12.10;99.90;;;;;;4142837;28;20029;-80
2024/03/20 06:54:43;;;;;;;4.80;3.28;;;12.20;99.90;;;;;;4159634;28;20065;-80
2024/03/20 06:56:48;;;;;;;6.90;4.00;;;12.30;99.90;;;;;;4157949;28;20040;-80
2024/03/20 06:58:48;;;;;;;7.05;4.00;;;12.40;99.90;;;;;;4148152;28;20041;-80
2024/03/20 07:00:49;;;;;;;7.80;3.92;;;12.40;99.90;;;;;;4158204;28;20041;-81
2024/03/20 07:02:50;;;;;;;6.80;3.78;;;12.40;99.90;;;;;;4159931;28;20481;-82
2024/03/20 07:04:51;;;;;;;6.72;4.20;;;12.50;99.90;;;;;;4157047;28;20513;-81
2024/03/20 07:06:52;;;;;;;7.25;4.10;;;12.60;99.90;;;;;;4157375;28;20140;-80
2024/03/20 07:08:53;;;;;;;8.15;5.13;;;12.60;99.90;;;;;;4158996;28;20083;-81
2024/03/20 07:10:53;;;;;;;6.55;4.40;;;12.70;99.90;;;;;;4156062;28;20045;-81
2024/03/20 07:12:54;;;;;;;7.05;5.03;;;12.70;99.90;;;;;;4154983;28;20036;-81
2024/03/20 07:14:55;;;;;;;6.72;4.40;;;12.80;99.90;;;;;;4154262;28;20138;-80
2024/03/20 07:16:56;;;;;;;10.13;5.30;;;12.90;99.90;;;;;;4158356;28;20540;-80
2024/03/20 07:18:57;;;;;;;8.40;4.70;;;12.90;99.90;;;;;;4152703;28;20083;-80
2024/03/20 07:20:57;;;;;;;7.25;4.93;;;13.00;99.90;;;;;;4157036;28;20489;-79
2024/03/20 07:22:58;;;;;;;9.40;4.95;;;13.10;99.90;;;;;;4157616;28;20108;-79
2024/03/20 07:24:59;;;;;;;6.63;4.63;;;13.20;99.90;;;;;;4159202;28;20041;-79
2024/03/20 07:27:00;;;;;;;7.43;4.72;;;13.30;99.90;;;;;;4158507;28;20394;-79
2024/03/20 07:29:01;;;;;;;6.80;5.03;;;13.30;99.90;;;;;;4157693;28;20490;-79
2024/03/20 07:31:01;;;;;;;11.05;5.13;;;13.20;99.90;;;;;;4155713;28;20056;-75
2024/03/20 07:33:02;;;;;;;8.27;4.85;;;13.20;99.90;;;;;;4157213;28;20033;-80
2024/03/20 07:35:03;;;;;;;9.50;5.47;;;13.20;99.90;;;;;;4158483;28;20053;-76
2024/03/20 07:37:07;;;;;;;8.10;5.15;;;13.20;99.90;;;;;;4188683;28;20451;-80
2024/03/20 07:39:08;;;;;;;6.95;4.90;;;13.20;99.90;;;;;;4153333;28;20025;-79
2024/03/20 07:41:09;;;;;;;8.05;4.30;;;13.30;99.90;;;;;;4152915;28;20379;-79
2024/03/20 07:43:09;;;;;;;8.55;4.90;;;13.40;99.90;;;;;;4156062;28;20036;-78
2024/03/20 07:45:11;;;;;;;7.70;4.32;;;13.40;99.90;;;;;;4157128;28;20560;-67
2024/03/20 07:47:12;;;;;;;6.03;3.97;;;13.50;99.90;;;;;;4154555;28;20505;-60
2024/03/20 07:49:12;;;;;;;8.50;5.00;;;13.40;99.90;;;;;;4152282;28;20053;-59
2024/03/20 07:51:18;;;;;;;7.40;4.85;;;13.50;99.90;;;;;;4144169;28;20374;-62
2024/03/20 07:53:18;;;;;;;6.95;4.82;;;13.50;99.90;;;;;;4151343;28;20441;-60
2024/03/20 07:55:20;;;;;;;8.95;5.35;;;13.60;99.90;;;;;;4150889;28;20046;-60
2024/03/20 07:57:20;;;;;;;8.40;5.35;;;13.60;99.90;;;;;;4158155;28;20040;-59
2024/03/20 07:59:23;;;;;;;8.05;4.47;;;13.70;99.90;;;;;;4158601;28;20042;-60
2024/03/20 08:01:23;;;;;;;7.90;5.38;;;13.80;99.90;;;;;;4148926;28;20439;-59
2024/03/20 08:03:24;;;;;;;9.25;4.85;;;14.00;99.90;;;;;;4156649;28;20080;-60
2024/03/20 08:05:28;;;;;;;7.38;5.13;;;14.10;99.90;;;;;;4157461;28;20045;-60
2024/03/20 08:07:28;;;;;;;7.13;4.68;;;14.20;99.90;;;;;;4158953;28;20029;-59
2024/03/20 08:09:29;;;;;;;7.57;5.10;;;14.30;99.90;;;;;;4158304;28;20532;-59
2024/03/20 08:11:30;;;;;;;8.38;4.90;;;14.40;99.90;;;;;;4155552;28;20037;-59
2024/03/20 08:13:31;;;;;;;7.85;4.28;;;14.50;99.90;;;;;;4158267;28;20038;-59
2024/03/20 08:15:32;;;;;;;8.50;4.15;;;14.60;99.90;;;;;;4157961;28;20052;-60
2024/03/20 08:17:32;;;;;;;9.07;4.55;;;14.70;99.90;;;;;;4156039;28;20041;-59
2024/03/20 08:19:33;;;;;;;9.45;4.80;;;14.80;99.90;;;;;;4157337;28;20053;-64
2024/03/20 08:21:36;;;;;;;7.28;4.15;;;14.90;99.90;;;;;;4155542;28;20061;-60
2024/03/20 08:23:36;;;;;;;7.15;5.03;;;14.90;99.90;;;;;;4158610;28;20116;-60
2024/03/20 08:25:37;;;;;;;8.35;4.68;;;15.00;99.90;;;;;;4157291;28;20060;-60
2024/03/20 08:27:37;;;;;;;6.85;4.72;;;15.10;99.90;;;;;;4156145;28;20152;-59
2024/03/20 08:29:38;;;;;;;8.95;5.13;;;15.20;99.90;;;;;;4157076;28;20410;-60
2024/03/20 08:31:39;;;;;;;8.57;4.88;;;15.30;99.90;;;;;;4153173;28;20037;-60
2024/03/20 08:33:40;;;;;;;9.63;4.72;;;15.40;99.90;;;;;;4160351;28;20033;-59
2024/03/20 08:35:40;;;;;;;6.80;5.07;;;15.50;99.90;;;;;;4155169;28;20065;-60
2024/03/20 08:37:41;;;;;;;9.75;4.97;;;15.60;99.90;;;;;;4156203;28;20033;-60
2024/03/20 08:39:41;;;;;;;6.78;4.05;;;15.70;99.90;;;;;;4161446;28;20046;-59
2024/03/20 08:41:42;;;;;;;8.60;5.03;;;15.80;99.90;;;;;;4159399;28;20474;-59
2024/03/20 08:43:44;;;;;;;6.07;4.45;;;15.90;99.90;;;;;;4159425;28;20033;-60
2024/03/20 08:45:45;;;;;;;7.35;4.25;;;16.00;99.90;;;;;;4159645;28;20037;-60
2024/03/20 08:47:47;;;;;;;6.82;4.93;;;16.10;99.90;;;;;;4159394;28;20045;-60
2024/03/20 08:49:48;;;;;;;5.85;3.80;;;16.20;99.90;;;;;;4161698;28;20030;-60
2024/03/20 08:51:49;;;;;;;7.63;4.63;;;16.30;99.90;;;;;;4159369;28;20490;-60
2024/03/20 08:53:50;;;;;;;6.25;4.13;;;16.40;99.90;;;;;;4161871;28;20044;-60
2024/03/20 08:55:51;;;;;;;7.25;4.50;;;16.40;99.90;;;;;;4160761;28;20037;-63
2024/03/20 08:57:51;;;;;;;6.97;4.18;;;16.50;99.90;;;;;;4160742;28;20025;-63
2024/03/20 08:59:52;;;;;;;6.78;4.45;;;16.60;99.90;;;;;;4161505;28;20037;-63
2024/03/20 09:01:53;;;;;;;6.28;4.30;;;16.70;99.90;;;;;;4160008;28;20029;-63
2024/03/20 09:03:53;;;;;;;6.47;4.20;;;16.70;99.90;;;;;;4161850;28;20482;-63
2024/03/20 09:05:54;;;;;;;5.68;4.22;;;16.80;99.90;;;;;;4149075;28;20042;-63
2024/03/20 09:07:55;;;;;;;5.82;4.28;;;16.90;99.90;;;;;;4158141;28;20064;-63
2024/03/20 09:09:56;;;;;;;9.18;4.95;;;16.80;99.90;;;;;;4159297;28;20045;-63
2024/03/20 09:11:56;;;;;;;7.75;4.47;;;16.90;99.90;;;;;;4158828;28;20041;-63
2024/03/20 09:13:58;;;;;;;8.50;4.97;;;17.00;99.90;;;;;;4157315;28;20029;-63
2024/03/20 09:15:59;;;;;;;6.55;4.60;;;17.10;99.90;;;;;;4157814;28;20075;-63
2024/03/20 09:17:59;;;;;;;7.50;4.95;;;17.10;99.90;;;;;;4158445;28;20037;-63
2024/03/20 09:20:00;;;;;;;9.18;4.85;;;17.20;99.90;;;;;;4160538;28;20124;-63
2024/03/20 09:22:01;;;;;;;7.97;5.10;;;17.30;99.90;;;;;;4159536;28;20527;-63
2024/03/20 09:24:03;;;;;;;6.78;4.55;;;17.30;99.90;;;;;;4189258;28;20401;-63
2024/03/20 09:26:03;;;;;;;6.60;4.35;;;17.40;99.90;;;;;;4158443;28;20124;-63
2024/03/20 09:28:04;;;;;;;6.35;4.82;;;17.30;99.90;;;;;;4160734;28;20057;-63
2024/03/20 09:30:06;;;;;;;8.18;5.25;;;17.40;99.90;;;;;;4157505;28;20135;-65
2024/03/20 09:32:07;;;;;;;7.93;5.20;;;17.40;99.90;;;;;;4147771;28;20699;-64
2024/03/20 09:34:07;;;;;;;7.07;4.97;;;17.40;99.90;;;;;;4150413;28;20042;-64
2024/03/20 09:36:08;;;;;;;7.13;4.80;;;17.50;99.90;;;;;;4160104;28;20117;-64
2024/03/20 09:38:09;;;;;;;7.75;5.43;;;17.50;99.90;;;;;;4160898;28;20037;-64
2024/03/20 09:40:12;;;;;;;11.23;6.35;;;17.50;99.90;;;;;;4156603;28;20376;-67
2024/03/20 09:42:13;;;;;;;7.45;4.90;;;17.50;99.90;;;;;;4190270;28;20056;-63
2024/03/20 09:44:14;;;;;;;8.38;5.20;;;17.60;99.90;;;;;;4156496;28;20505;-63
2024/03/20 09:46:19;;;;;;;10.15;5.45;;;17.50;99.90;;;;;;4158853;28;20037;-64
2024/03/20 09:48:21;;;;;;;9.95;5.57;;;17.60;99.90;;;;;;4155195;28;20475;-63
2024/03/20 09:50:23;;;;;;;9.52;4.57;;;17.60;99.90;;;;;;4151679;28;20427;-63
2024/03/20 09:52:25;;;;;;;7.80;4.25;;;17.80;99.90;;;;;;4156483;28;20029;-63
2024/03/20 09:54:26;;;;;;;6.15;4.55;;;17.70;99.90;;;;;;4159177;28;20054;-63
2024/03/20 09:56:29;;;;;;;7.25;4.60;;;17.80;99.90;;;;;;4156014;28;20482;-63
2024/03/20 09:58:30;;;;;;;7.60;4.70;;;17.90;99.90;;;;;;4154072;28;20029;-63
2024/03/20 10:00:30;;;;;;;5.20;4.10;;;17.90;99.90;;;;;;4155834;28;20418;-63
2024/03/20 10:02:31;;;;;;;9.02;4.97;;;17.90;99.90;;;;;;4158869;28;20043;-63
2024/03/20 10:04:36;;;;;;;5.85;3.67;;;18.00;99.90;;;;;;4156348;28;20054;-64
2024/03/20 10:06:36;;;;;;;5.60;3.30;;;18.00;99.90;;;;;;4157315;28;20044;-70
2024/03/20 10:08:38;;;;;;;5.70;3.70;;;18.10;99.90;;;;;;4157499;28;20038;-71
2024/03/20 10:10:43;;;;;;;9.63;3.92;;;18.20;99.90;;;;;;4156333;28;20042;-71
2024/03/20 10:12:46;;;;;;;7.10;3.65;;;18.10;99.90;;;;;;4156497;28;20060;-72
2024/03/20 10:14:47;;;;;;;5.22;3.72;;;18.10;99.90;;;;;;4158870;28;20099;-72
2024/03/20 10:16:47;;;;;;;5.88;3.58;;;18.20;99.90;;;;;;4157391;28;20041;-71
2024/03/20 10:18:49;;;;;;;5.95;3.30;;;18.20;99.90;;;;;;4157353;28;20049;-71
2024/03/20 10:20:49;;;;;;;6.43;3.28;;;18.30;99.90;;;;;;4156536;28;20060;-72
2024/03/20 10:22:50;;;;;;;4.72;3.15;;;18.40;99.90;;;;;;4158290;28;20029;-72
2024/03/20 10:24:50;;;;;;;5.03;2.92;;;18.30;99.90;;;;;;4156330;28;20051;-72
2024/03/20 10:26:52;;;;;;;5.95;3.00;;;18.40;99.90;;;;;;4158655;28;20140;-72
2024/03/20 10:28:55;;;;;;;6.18;3.65;;;18.40;99.90;;;;;;4159432;28;20049;-72